Time;durP1;ratioP1;P1;durP2;ratioP2;P2;SDS_P1;SDS_P2;PMS_P1;PMS_P2;Temp;Humidity;BMP_temperature;BMP_pressure;BME280_temperature;BME280_humidity;BME280_pressure;Samples;Min_cycle;Max_cycle;Signal;HPM_P1;HPM_P2
2023/06/18 00:02:13;;;;;;;10.23;7.93;;;;;;;14.01;84.66;97636.66;10630565;27;20448;-68
2023/06/18 00:07:33;;;;;;;11.57;8.45;;;;;;;14.00;84.55;97634.50;10613348;28;20102;-68
2023/06/18 00:12:54;;;;;;;10.73;7.93;;;;;;;13.93;84.72;97627.09;10598689;28;20118;-68
2023/06/18 00:18:15;;;;;;;12.52;7.63;;;;;;;13.88;84.76;97625.41;10628426;28;20043;-69
2023/06/18 00:23:36;;;;;;;12.07;7.45;;;;;;;13.87;85.23;97630.31;10612689;28;20059;-67
2023/06/18 00:28:56;;;;;;;10.05;6.75;;;;;;;13.80;85.09;97627.78;10598453;28;20074;-68
2023/06/18 00:34:17;;;;;;;11.63;7.65;;;;;;;13.73;85.67;97632.38;10627541;28;20114;-68
2023/06/18 00:39:38;;;;;;;10.10;7.50;;;;;;;13.69;85.74;97632.13;10612284;28;20114;-68
2023/06/18 00:44:59;;;;;;;13.50;8.40;;;;;;;13.68;85.56;97625.06;10597948;28;20043;-68
2023/06/18 00:50:19;;;;;;;9.27;7.35;;;;;;;13.63;85.93;97626.22;10597217;27;20545;-71
2023/06/18 00:55:41;;;;;;;7.57;6.53;;;;;;;13.51;85.90;97622.72;10597629;28;20035;-67
2023/06/18 01:01:02;;;;;;;11.93;7.30;;;;;;;13.49;86.12;97625.44;10559159;27;1070986;-69
2023/06/18 01:06:24;;;;;;;10.82;7.80;;;;;;;13.47;86.37;97623.25;10599991;27;20564;-67
2023/06/18 01:11:45;;;;;;;12.32;8.18;;;;;;;13.43;85.98;97623.78;10599423;27;20111;-68
2023/06/18 01:17:06;;;;;;;10.98;7.68;;;;;;;13.41;86.34;97618.06;10599097;27;20571;-68
2023/06/18 01:22:51;;;;;;;13.70;7.93;;;;;;;13.37;86.66;97620.63;10613701;27;20122;-68
2023/06/18 01:28:13;;;;;;;11.52;7.28;;;;;;;13.46;86.69;97616.91;10628258;27;20058;-67
2023/06/18 01:33:34;;;;;;;11.60;7.40;;;;;;;13.48;86.72;97612.75;10598348;27;20062;-68
2023/06/18 01:38:59;;;;;;;9.52;7.05;;;;;;;13.42;86.55;97618.78;10612436;27;20437;-67
2023/06/18 01:44:20;;;;;;;12.82;7.00;;;;;;;13.42;86.44;97616.72;10627567;27;20126;-68
2023/06/18 01:49:42;;;;;;;12.95;6.45;;;;;;;13.37;86.54;97614.28;10597855;27;20149;-68
2023/06/18 01:55:03;;;;;;;10.82;6.65;;;;;;;13.38;86.86;97616.47;10598304;27;20142;-69
2023/06/18 02:00:24;;;;;;;9.80;6.75;;;;;;;13.34;86.70;97618.34;10600789;27;20447;-72
2023/06/18 02:05:45;;;;;;;11.38;7.70;;;;;;;13.27;87.71;97617.28;10587239;28;20103;-69
2023/06/18 02:11:06;;;;;;;12.57;8.70;;;;;;;13.25;88.00;97627.66;10557328;28;20035;-70
2023/06/18 02:16:27;;;;;;;12.57;7.53;;;;;;;13.13;86.75;97636.09;10556962;28;20236;-73
2023/06/18 02:21:50;;;;;;;11.90;8.70;;;;;;;13.01;87.54;97627.00;10570342;28;20119;-69
2023/06/18 02:27:10;;;;;;;12.07;7.63;;;;;;;13.03;88.06;97624.31;10554177;28;20115;-69
2023/06/18 02:32:36;;;;;;;9.88;7.50;;;;;;;13.03;88.23;97627.84;10582003;28;20067;-68
2023/06/18 02:37:57;;;;;;;9.20;7.35;;;;;;;13.00;88.13;97631.88;10568640;28;20115;-68
2023/06/18 02:43:18;;;;;;;10.88;7.70;;;;;;;13.01;88.10;97629.78;10553788;28;20189;-68
2023/06/18 02:48:39;;;;;;;10.93;7.85;;;;;;;13.08;89.27;97640.72;10581887;28;20165;-68
2023/06/18 02:54:00;;;;;;;10.98;7.22;;;;;;;13.10;88.56;97643.63;10581537;28;20065;-68
2023/06/18 02:59:21;;;;;;;11.55;7.68;;;;;;;13.12;87.82;97651.44;10567147;28;20526;-68
2023/06/18 03:04:42;;;;;;;9.82;8.15;;;;;;;13.10;87.82;97659.72;10581079;28;20442;-67
2023/06/18 03:10:03;;;;;;;11.80;7.95;;;;;;;13.06;87.98;97667.91;10566737;28;20040;-69
2023/06/18 03:15:26;;;;;;;11.32;7.90;;;;;;;12.96;88.13;97667.34;10552936;28;20063;-67
2023/06/18 03:20:47;;;;;;;12.93;6.90;;;;;;;13.12;88.79;97674.59;10566498;28;20068;-68
2023/06/18 03:26:08;;;;;;;10.88;7.00;;;;;;;13.22;88.67;97660.47;10580599;28;20456;-68
2023/06/18 03:31:31;;;;;;;9.95;7.00;;;;;;;13.37;88.41;97665.50;10566637;28;20119;-68
2023/06/18 03:36:53;;;;;;;8.90;6.30;;;;;;;13.51;87.88;97671.16;10566070;28;20044;-68
2023/06/18 03:42:16;;;;;;;;;;;;;;;13.59;87.73;97662.44;10566960;28;20076;-68
2023/06/18 03:47:36;;;;;;;11.48;6.38;;;;;;;13.75;87.95;97663.31;10565615;28;20014;-67
2023/06/18 03:52:58;;;;;;;10.10;6.10;;;;;;;13.94;87.36;97660.13;10551904;28;20578;-68
2023/06/18 03:58:19;;;;;;;8.75;5.68;;;;;;;14.14;87.06;97668.91;10580654;28;20096;-68
2023/06/18 04:03:42;;;;;;;9.73;5.90;;;;;;;14.42;86.73;97671.72;10579713;28;20128;-68
2023/06/18 04:09:03;;;;;;;8.43;5.82;;;;;;;14.74;86.55;97667.75;10551753;28;20119;-68
2023/06/18 04:14:25;;;;;;;6.88;5.78;;;;;;;14.95;85.54;97672.31;10580397;28;20089;-68
2023/06/18 04:19:46;;;;;;;10.90;5.88;;;;;;;15.15;84.80;97678.94;10551069;28;20059;-68
2023/06/18 04:25:08;;;;;;;9.82;6.07;;;;;;;15.33;84.69;97670.63;10565626;28;20548;-68
2023/06/18 04:30:29;;;;;;;9.73;6.00;;;;;;;15.44;84.15;97666.97;10544821;28;20043;-67
2023/06/18 04:35:50;;;;;;;7.95;6.15;;;;;;;15.69;83.48;97668.84;10558117;28;20067;-68
2023/06/18 04:41:12;;;;;;;13.57;6.82;;;;;;;15.92;83.06;97676.22;10586964;28;20504;-68
2023/06/18 04:46:33;;;;;;;11.52;6.25;;;;;;;16.21;82.56;97683.88;10572927;28;20447;-68
2023/06/18 04:51:55;;;;;;;8.18;6.20;;;;;;;16.53;80.90;97686.66;10558287;28;20115;-68
2023/06/18 04:57:16;;;;;;;8.07;6.43;;;;;;;16.86;80.54;97691.59;10557944;28;20067;-68
2023/06/18 05:02:37;;;;;;;8.80;6.30;;;;;;;17.29;80.06;97701.81;10586146;27;20063;-70
2023/06/18 05:07:58;;;;;;;6.63;5.85;;;;;;;17.60;79.60;97698.84;10599934;27;20035;-70
2023/06/18 05:13:20;;;;;;;9.45;6.30;;;;;;;17.97;78.35;97701.00;10600194;27;20062;-70
2023/06/18 05:18:42;;;;;;;11.65;6.30;;;;;;;18.23;77.13;97714.63;10613943;27;20035;-70
2023/06/18 05:24:07;;;;;;;8.15;6.22;;;;;;;18.43;75.64;97723.13;10599947;27;20043;-68
2023/06/18 05:29:29;;;;;;;10.35;6.55;;;;;;;18.81;73.83;97716.03;10599456;27;20123;-68
2023/06/18 05:34:51;;;;;;;9.68;6.55;;;;;;;19.19;72.92;97723.69;10599124;27;20070;-68
2023/06/18 05:40:11;;;;;;;6.55;5.88;;;;;;;19.51;70.87;97707.78;10583314;27;20050;-69
2023/06/18 05:45:34;;;;;;;8.65;6.57;;;;;;;19.92;69.97;97714.72;10612915;27;20043;-69
2023/06/18 05:50:55;;;;;;;11.15;6.28;;;;;;;20.53;69.23;97713.66;10598220;27;20525;-68
2023/06/18 05:56:17;;;;;;;9.45;6.30;;;;;;;21.19;67.63;97731.03;10597993;27;20112;-69
2023/06/18 06:01:38;;;;;;;8.75;6.82;;;;;;;21.61;65.71;97725.00;10592342;27;20043;-69
2023/06/18 06:07:00;;;;;;;8.88;6.97;;;;;;;21.95;64.20;97727.91;10555429;28;20169;-68
2023/06/18 06:12:22;;;;;;;7.80;6.63;;;;;;;22.61;62.51;97739.31;10555140;28;20063;-69
2023/06/18 06:17:43;;;;;;;13.05;7.18;;;;;;;22.94;60.24;97742.78;10568772;28;20378;-69
2023/06/18 06:23:06;;;;;;;8.88;6.78;;;;;;;23.04;59.17;97738.00;10555317;28;20067;-69
2023/06/18 06:28:28;;;;;;;9.87;6.90;;;;;;;23.90;58.16;97736.59;10568338;28;20035;-69
2023/06/18 06:33:50;;;;;;;11.07;7.57;;;;;;;24.23;56.30;97737.78;10568485;28;20047;-69
2023/06/18 06:39:13;;;;;;;8.70;7.38;;;;;;;24.03;54.42;97737.50;10568569;28;20061;-69
2023/06/18 06:44:35;;;;;;;9.00;7.60;;;;;;;24.06;53.07;97753.22;10553595;28;20101;-69
2023/06/18 06:50:09;;;;;;;12.00;7.78;;;;;;;24.22;52.53;97739.19;10569507;28;20073;-69
2023/06/18 06:55:44;;;;;;;9.02;7.38;;;;;;;24.17;50.77;97752.69;10555253;28;20123;-69
2023/06/18 07:01:11;;;;;;;10.00;7.30;;;;;;;24.53;50.76;97754.63;10555377;27;20519;-70
2023/06/18 07:06:32;;;;;;;9.93;6.63;;;;;;;25.00;50.07;97758.03;10609883;27;20062;-69
2023/06/18 07:11:53;;;;;;;8.95;7.93;;;;;;;24.81;48.89;97754.25;10624840;27;20046;-69
2023/06/18 07:17:14;;;;;;;10.60;8.20;;;;;;;25.16;48.38;97751.78;10595015;27;20114;-69
2023/06/18 07:22:35;;;;;;;12.75;7.90;;;;;;;25.01;47.78;97748.75;10609078;27;20105;-69
2023/06/18 07:27:57;;;;;;;11.98;8.32;;;;;;;25.33;47.39;97751.22;10594973;28;20127;-68
2023/06/18 07:33:18;;;;;;;11.73;8.98;;;;;;;25.31;46.71;97747.66;10608935;28;20400;-69
2023/06/18 07:38:40;;;;;;;10.33;7.70;;;;;;;25.82;46.99;97760.25;10624291;28;20063;-69
2023/06/18 07:44:01;;;;;;;13.30;9.10;;;;;;;26.31;45.17;97757.69;10609073;28;20073;-69
2023/06/18 07:49:22;;;;;;;9.38;8.00;;;;;;;26.38;44.99;97767.06;10580419;28;20035;-69
2023/06/18 07:54:43;;;;;;;10.95;8.35;;;;;;;26.58;44.20;97760.72;10608664;28;20047;-69
2023/06/18 08:00:05;;;;;;;14.57;9.15;;;;;;;27.17;43.71;97764.50;10608693;27;20046;-69
2023/06/18 08:05:32;;;;;;;11.50;8.35;;;;;;;27.55;42.17;97760.97;10588193;28;20079;-70
2023/06/18 08:10:53;;;;;;;9.63;8.27;;;;;;;28.04;41.54;97769.59;10588452;28;20040;-70
2023/06/18 08:16:14;;;;;;;13.27;9.15;;;;;;;27.51;40.17;97769.59;10573893;28;20051;-70
2023/06/18 08:21:35;;;;;;;8.82;7.93;;;;;;;27.55;40.86;97768.88;10574025;28;20093;-69
2023/06/18 08:26:56;;;;;;;10.88;7.90;;;;;;;27.13;40.76;97769.53;10573484;28;20149;-69
2023/06/18 08:32:17;;;;;;;8.60;7.50;;;;;;;27.88;40.37;97766.72;10573410;28;20047;-70
2023/06/18 08:37:38;;;;;;;8.90;7.90;;;;;;;28.28;39.19;97762.38;10588118;28;20035;-70
2023/06/18 08:43:00;;;;;;;10.33;7.83;;;;;;;28.34;38.14;97759.50;10587182;28;20123;-69
2023/06/18 08:48:27;;;;;;;11.23;8.35;;;;;;;28.28;37.81;97756.63;10588036;28;20044;-70
2023/06/18 08:53:58;;;;;;;7.97;6.57;;;;;;;28.70;37.52;97759.41;10573206;28;20492;-69
2023/06/18 08:59:20;;;;;;;9.63;6.82;;;;;;;29.42;35.34;97751.09;10558943;28;20598;-70
2023/06/18 09:04:44;;;;;;;10.57;7.82;;;;;;;29.35;35.04;97747.56;10585971;28;20137;-70
2023/06/18 09:10:05;;;;;;;10.45;6.55;;;;;;;29.29;35.23;97744.72;10587129;28;20032;-70
2023/06/18 09:15:26;;;;;;;10.97;7.00;;;;;;;29.60;34.02;97747.41;10585633;28;20088;-69
2023/06/18 09:20:48;;;;;;;7.25;6.35;;;;;;;29.38;33.16;97744.69;10586614;28;20364;-70
2023/06/18 09:26:09;;;;;;;6.30;5.70;;;;;;;29.75;32.79;97754.47;10571297;28;20051;-70
2023/06/18 09:31:30;;;;;;;6.63;5.57;;;;;;;30.37;32.94;97748.84;10556955;28;20039;-69
2023/06/18 09:36:50;;;;;;;8.32;5.15;;;;;;;31.33;31.49;97749.09;10570744;28;20113;-69
2023/06/18 09:42:13;;;;;;;7.25;5.88;;;;;;;31.53;30.13;97750.22;10570714;28;20051;-70
2023/06/18 09:47:34;;;;;;;7.30;4.78;;;;;;;31.52;29.46;97746.63;10584611;28;20439;-70
2023/06/18 09:52:55;;;;;;;6.03;5.20;;;;;;;31.50;28.85;97743.78;10584312;28;20507;-70
2023/06/18 09:58:17;;;;;;;6.88;5.10;;;;;;;30.96;28.40;97742.38;10569968;28;20032;-70
2023/06/18 10:03:39;;;;;;;8.02;5.55;;;;;;;30.94;29.04;97748.91;10584177;28;20397;-71
2023/06/18 10:09:00;;;;;;;7.50;4.85;;;;;;;31.09;28.61;97742.94;10541233;28;20481;-70
2023/06/18 10:14:23;;;;;;;9.27;5.53;;;;;;;31.75;28.34;97740.50;10554978;28;20039;-70
2023/06/18 10:19:49;;;;;;;6.70;5.13;;;;;;;31.93;27.79;97743.09;10569146;28;20039;-71
2023/06/18 10:25:10;;;;;;;5.43;4.80;;;;;;;31.32;27.74;97744.06;10554330;28;20179;-70
2023/06/18 10:30:31;;;;;;;5.32;4.60;;;;;;;31.69;27.63;97740.59;10540820;28;20392;-71
2023/06/18 10:35:52;;;;;;;7.10;4.63;;;;;;;31.22;27.88;97735.56;10554269;28;20120;-71
2023/06/18 10:41:17;;;;;;;6.20;4.73;;;;;;;31.33;27.76;97743.31;10554199;28;20051;-70
2023/06/18 10:46:38;;;;;;;5.32;4.70;;;;;;;30.77;28.03;97728.22;10540328;28;20044;-71
2023/06/18 10:52:24;;;;;;;5.97;4.73;;;;;;;31.00;28.19;97725.78;10553823;28;20040;-71
2023/06/18 10:58:01;;;;;;;5.97;4.27;;;;;;;30.66;28.10;97723.34;10582755;28;20044;-70
2023/06/18 11:03:22;;;;;;;5.15;4.03;;;;;;;30.95;27.34;97720.78;10587687;27;20472;-70
2023/06/18 11:08:43;;;;;;;6.40;5.03;;;;;;;31.25;27.45;97713.91;10595757;27;20043;-71
2023/06/18 11:14:18;;;;;;;5.03;3.90;;;;;;;32.09;26.45;97713.22;10595475;27;20130;-71
2023/06/18 11:19:40;;;;;;;6.20;4.28;;;;;;;31.90;26.29;97707.78;10624558;27;20076;-70
2023/06/18 11:25:01;;;;;;;5.32;4.40;;;;;;;31.09;27.16;97705.47;10595267;27;20477;-70
2023/06/18 11:30:21;;;;;;;6.13;4.77;;;;;;;31.44;27.23;97706.38;10594958;28;20067;-70
2023/06/18 11:35:42;;;;;;;6.03;4.93;;;;;;;31.12;26.90;97692.47;10597965;27;20096;-71
2023/06/18 11:41:03;;;;;;;5.65;4.75;;;;;;;30.77;26.84;97687.19;10617796;27;20108;-70
2023/06/18 11:46:37;;;;;;;6.20;4.23;;;;;;;30.06;28.08;97673.63;10617624;27;20389;-71
2023/06/18 11:51:59;;;;;;;5.55;3.88;;;;;;;30.34;28.40;97679.06;10617714;27;20511;-70
2023/06/18 11:57:20;;;;;;;4.93;4.37;;;;;;;30.27;27.38;97671.25;10602821;27;20074;-70
2023/06/18 12:02:41;;;;;;;4.93;4.32;;;;;;;29.87;27.82;97670.94;10588055;27;20514;-71
2023/06/18 12:08:13;;;;;;;5.97;4.30;;;;;;;29.71;27.64;97664.63;10574347;28;20506;-70
2023/06/18 12:13:37;;;;;;;5.47;4.05;;;;;;;29.83;27.67;97662.34;10560644;28;20059;-70
2023/06/18 12:19:01;;;;;;;5.40;4.20;;;;;;;28.78;27.94;97655.97;10546342;28;20393;-71
2023/06/18 12:24:21;;;;;;;6.20;4.63;;;;;;;28.69;28.30;97648.13;10560034;28;20043;-70
2023/06/18 12:29:44;;;;;;;5.88;4.63;;;;;;;28.72;28.70;97658.16;10573685;28;20044;-70
2023/06/18 12:35:15;;;;;;;5.70;4.43;;;;;;;28.82;28.58;97651.63;10559547;28;20036;-70
2023/06/18 12:40:50;;;;;;;4.90;3.75;;;;;;;28.88;28.20;97640.81;10558890;28;20069;-70
2023/06/18 12:46:10;;;;;;;7.43;4.50;;;;;;;29.00;28.08;97635.03;10572230;28;20507;-70
2023/06/18 12:51:41;;;;;;;6.18;4.15;;;;;;;29.14;27.68;97637.06;10572643;28;20070;-70
2023/06/18 12:57:02;;;;;;;4.45;3.97;;;;;;;29.68;27.66;97634.47;10558298;28;20393;-70
2023/06/18 13:02:23;;;;;;;5.72;4.57;;;;;;;29.54;26.78;97627.41;10583943;27;20078;-70
2023/06/18 13:07:50;;;;;;;5.30;4.43;;;;;;;29.07;27.18;97621.31;10614406;27;20499;-70
2023/06/18 13:13:11;;;;;;;5.93;4.32;;;;;;;29.23;27.27;97615.44;10614474;27;20051;-70
2023/06/18 13:18:32;;;;;;;5.93;4.03;;;;;;;29.60;27.18;97618.72;10599452;27;20118;-70
2023/06/18 13:23:53;;;;;;;4.40;4.00;;;;;;;29.25;26.81;97621.19;10629141;27;20369;-70
2023/06/18 13:29:14;;;;;;;6.45;4.45;;;;;;;28.82;27.85;97620.03;10599131;27;20054;-70
2023/06/18 13:34:35;;;;;;;7.18;4.20;;;;;;;28.40;27.67;97601.63;10628649;27;20038;-70
2023/06/18 13:39:56;;;;;;;5.13;4.10;;;;;;;28.61;28.13;97607.97;10613381;27;20067;-70
2023/06/18 13:45:17;;;;;;;5.30;4.13;;;;;;;28.89;27.46;97607.09;10612859;27;20054;-70
2023/06/18 13:50:41;;;;;;;5.20;3.90;;;;;;;28.86;27.04;97597.06;10613330;27;20039;-71
2023/06/18 13:56:02;;;;;;;5.65;4.13;;;;;;;28.78;26.80;97597.81;10597816;27;20047;-70
2023/06/18 14:01:23;;;;;;;7.65;4.28;;;;;;;28.46;27.53;97598.72;10607729;27;20083;-70
2023/06/18 14:06:44;;;;;;;7.07;4.22;;;;;;;28.75;27.59;97599.97;10584719;28;20123;-70
2023/06/18 14:12:05;;;;;;;4.72;4.20;;;;;;;29.08;27.48;97591.16;10555204;28;20116;-70
2023/06/18 14:17:26;;;;;;;5.10;4.50;;;;;;;28.89;27.08;97590.56;10569319;28;20046;-70
2023/06/18 14:22:48;;;;;;;4.70;4.20;;;;;;;28.80;27.06;97587.03;10568788;28;20059;-70
2023/06/18 14:28:09;;;;;;;4.45;3.92;;;;;;;28.96;26.97;97594.13;10569081;28;20047;-70
2023/06/18 14:33:31;;;;;;;5.13;3.92;;;;;;;28.86;27.01;97592.03;10568400;28;20063;-70
2023/06/18 14:38:52;;;;;;;4.15;3.72;;;;;;;28.81;27.13;97590.59;10568497;28;20063;-70
2023/06/18 14:44:13;;;;;;;9.55;4.13;;;;;;;28.72;26.97;97584.22;10553799;28;20115;-70
2023/06/18 14:49:35;;;;;;;4.80;4.30;;;;;;;28.46;27.74;97582.22;10567881;28;20063;-70
2023/06/18 14:54:56;;;;;;;4.93;4.43;;;;;;;27.98;27.99;97580.28;10567774;28;20122;-70
2023/06/18 15:00:17;;;;;;;4.90;4.07;;;;;;;28.07;28.35;97573.06;10553036;28;20048;-70
2023/06/18 15:05:37;;;;;;;8.05;5.05;;;;;;;28.13;28.10;97581.66;10564040;28;20048;-70
2023/06/18 15:10:58;;;;;;;5.30;4.70;;;;;;;27.97;28.32;97575.25;10581103;28;20075;-71
2023/06/18 15:16:19;;;;;;;6.03;4.70;;;;;;;27.54;29.09;97584.69;10582182;28;20473;-70
2023/06/18 15:21:39;;;;;;;6.78;4.53;;;;;;;27.18;30.46;97573.28;10566840;28;20050;-70
2023/06/18 15:27:00;;;;;;;8.77;4.38;;;;;;;26.81;31.00;97578.97;10552662;28;20055;-70
2023/06/18 15:32:23;;;;;;;6.80;4.50;;;;;;;26.58;31.05;97580.41;10581668;28;20046;-71
2023/06/18 15:37:44;;;;;;;6.50;4.97;;;;;;;26.48;31.41;97563.94;10552842;28;20408;-70
2023/06/18 15:43:05;;;;;;;8.45;4.47;;;;;;;26.33;31.89;97573.88;10566583;28;20039;-71
2023/06/18 15:48:26;;;;;;;8.13;5.00;;;;;;;26.34;32.05;97578.16;10580561;28;20078;-70
2023/06/18 15:53:47;;;;;;;10.65;4.25;;;;;;;26.19;32.34;97566.69;10580632;28;20040;-70
2023/06/18 15:59:07;;;;;;;5.70;4.43;;;;;;;26.07;32.37;97568.81;10581208;28;20044;-70
2023/06/18 16:04:28;;;;;;;7.30;4.47;;;;;;;26.02;33.03;97570.22;10566240;28;20059;-70
2023/06/18 16:09:49;;;;;;;7.03;4.90;;;;;;;25.90;33.36;97571.59;10580035;28;20046;-70
2023/06/18 16:15:10;;;;;;;6.00;4.82;;;;;;;25.91;33.47;97572.31;10565940;28;20050;-70
2023/06/18 16:20:33;;;;;;;6.65;4.57;;;;;;;25.89;33.16;97578.75;10581159;28;20036;-69
2023/06/18 16:25:55;;;;;;;5.65;4.70;;;;;;;25.92;33.75;97568.03;10573955;28;20046;-70
2023/06/18 16:31:15;;;;;;;6.90;4.90;;;;;;;25.94;33.65;97570.88;10587725;28;20063;-70
2023/06/18 16:36:36;;;;;;;6.93;4.70;;;;;;;25.70;33.89;97568.66;10587068;28;20047;-70
2023/06/18 16:41:57;;;;;;;5.05;4.18;;;;;;;25.64;34.00;97562.88;10559049;28;20182;-70
2023/06/18 16:47:18;;;;;;;5.65;4.63;;;;;;;25.61;34.40;97556.44;10558696;28;20051;-69
2023/06/18 16:52:39;;;;;;;7.15;4.60;;;;;;;25.52;34.70;97557.81;10587973;28;20047;-69
2023/06/18 16:58:00;;;;;;;6.85;4.47;;;;;;;25.46;34.92;97549.19;10587767;28;20063;-69
2023/06/18 17:03:21;;;;;;;5.88;4.55;;;;;;;25.36;35.27;97552.72;10606125;27;20086;-69
2023/06/18 17:08:42;;;;;;;8.00;4.85;;;;;;;25.18;35.28;97551.88;10614441;27;20051;-69
2023/06/18 17:14:04;;;;;;;5.82;4.60;;;;;;;25.16;35.79;97557.56;10585676;27;20070;-69
2023/06/18 17:19:25;;;;;;;6.10;4.25;;;;;;;25.06;35.74;97561.06;10629096;27;20125;-69
2023/06/18 17:24:46;;;;;;;5.72;4.55;;;;;;;25.01;35.93;97560.31;10628986;27;20066;-71
2023/06/18 17:30:07;;;;;;;6.55;5.00;;;;;;;24.96;35.80;97566.69;10585302;27;20043;-70
2023/06/18 17:35:29;;;;;;;5.20;4.15;;;;;;;24.82;36.38;97562.28;10613544;27;20047;-68
2023/06/18 17:40:50;;;;;;;6.88;5.07;;;;;;;24.75;36.57;97575.06;10613174;27;20399;-69
2023/06/18 17:46:16;;;;;;;5.03;4.47;;;;;;;24.63;37.18;97568.53;10628471;27;20480;-70
2023/06/18 17:51:37;;;;;;;6.18;4.88;;;;;;;24.51;37.41;97572.72;10584950;27;20110;-69
2023/06/18 17:56:59;;;;;;;6.50;5.53;;;;;;;24.41;37.31;97571.88;10598255;27;20434;-70
2023/06/18 18:02:20;;;;;;;8.50;5.38;;;;;;;24.26;37.72;97574.56;10600475;27;20080;-69
2023/06/18 18:07:41;;;;;;;6.22;4.53;;;;;;;24.13;37.88;97584.41;10569792;28;20116;-70
2023/06/18 18:13:01;;;;;;;6.93;4.45;;;;;;;24.05;38.43;97590.00;10555357;28;20044;-70
2023/06/18 18:18:23;;;;;;;6.32;4.68;;;;;;;23.93;38.24;97589.84;10584278;28;20043;-69
2023/06/18 18:23:43;;;;;;;6.72;4.20;;;;;;;23.79;38.53;97592.53;10569103;28;20439;-69
2023/06/18 18:29:04;;;;;;;6.07;4.95;;;;;;;23.62;38.99;97586.59;10568723;28;20047;-70
2023/06/18 18:34:25;;;;;;;7.82;4.78;;;;;;;23.51;39.33;97596.41;10568559;28;20046;-70
2023/06/18 18:39:46;;;;;;;8.40;4.38;;;;;;;23.39;39.27;97593.38;10583469;28;20382;-69
2023/06/18 18:45:08;;;;;;;6.35;4.40;;;;;;;23.24;39.53;97598.13;10582652;28;20047;-70
2023/06/18 18:50:28;;;;;;;7.25;4.43;;;;;;;23.14;40.04;97603.66;10568194;28;20531;-70
2023/06/18 18:55:50;;;;;;;5.68;4.95;;;;;;;22.95;40.52;97602.66;10582873;28;20122;-69
2023/06/18 19:01:11;;;;;;;7.18;4.72;;;;;;;22.82;40.49;97615.22;10569281;27;20031;-70
2023/06/18 19:06:32;;;;;;;8.00;5.07;;;;;;;22.64;41.00;97617.75;10595433;27;20099;-69
2023/06/18 19:11:53;;;;;;;6.22;4.53;;;;;;;22.48;41.45;97624.56;10595353;27;20031;-70
2023/06/18 19:17:14;;;;;;;7.38;4.78;;;;;;;22.34;41.48;97623.59;10624614;27;20039;-70
2023/06/18 19:22:35;;;;;;;6.82;5.03;;;;;;;22.08;42.33;97632.28;10595337;27;20043;-70
2023/06/18 19:27:56;;;;;;;8.05;4.88;;;;;;;21.89;42.90;97643.25;10624752;27;20095;-69
2023/06/18 19:33:17;;;;;;;8.02;4.60;;;;;;;21.72;42.98;97641.47;10594931;27;20462;-69
2023/06/18 19:38:40;;;;;;;7.03;5.20;;;;;;;21.61;43.42;97642.63;10594897;28;20054;-69
2023/06/18 19:44:01;;;;;;;6.32;4.88;;;;;;;21.46;43.94;97641.59;10609043;28;20036;-69
2023/06/18 19:49:22;;;;;;;6.50;5.13;;;;;;;21.33;44.45;97654.78;10594731;28;20088;-69
2023/06/18 19:54:43;;;;;;;10.73;5.45;;;;;;;21.19;44.71;97651.56;10608697;28;20491;-70
2023/06/18 20:00:04;;;;;;;8.23;5.68;;;;;;;21.08;45.13;97649.88;10615865;27;20153;-69
2023/06/18 20:05:32;;;;;;;6.57;5.13;;;;;;;20.97;45.34;97654.59;10562274;28;20508;-69
2023/06/18 20:10:53;;;;;;;7.82;6.00;;;;;;;20.82;45.84;97644.25;10588637;28;20112;-69
2023/06/18 20:16:14;;;;;;;7.30;5.65;;;;;;;20.77;46.38;97651.97;10588366;28;20055;-69
2023/06/18 20:21:35;;;;;;;7.45;5.70;;;;;;;20.75;46.54;97663.25;10573830;28;20101;-69
2023/06/18 20:26:56;;;;;;;6.93;5.30;;;;;;;20.69;46.71;97663.09;10573777;28;20059;-69
2023/06/18 20:32:17;;;;;;;8.93;5.65;;;;;;;20.67;46.70;97656.63;10587663;28;20035;-69
2023/06/18 20:37:38;;;;;;;8.10;5.35;;;;;;;20.64;47.57;97658.69;10573238;28;20259;-69
2023/06/18 20:42:58;;;;;;;7.18;5.45;;;;;;;20.61;47.11;97664.97;10587485;28;20442;-70
2023/06/18 20:48:21;;;;;;;8.65;5.85;;;;;;;20.57;47.46;97657.09;10587140;28;20043;-69
2023/06/18 20:53:42;;;;;;;;;;;;;;;20.53;48.08;97654.13;10587437;28;20460;-69
2023/06/18 20:59:03;;;;;;;8.00;5.28;;;;;;;20.45;47.65;97660.31;10586409;28;20274;-69
2023/06/18 21:04:25;;;;;;;8.07;5.55;;;;;;;20.37;48.05;97665.03;10572386;28;20047;-69
2023/06/18 21:09:45;;;;;;;7.15;4.88;;;;;;;20.25;48.17;97662.53;10585643;28;20043;-69
2023/06/18 21:15:07;;;;;;;7.70;5.55;;;;;;;20.18;48.44;97658.84;10571855;28;20035;-69
2023/06/18 21:20:28;;;;;;;8.02;5.10;;;;;;;20.17;48.51;97671.56;10571984;28;20409;-69
2023/06/18 21:25:49;;;;;;;11.25;5.28;;;;;;;20.08;48.80;97664.22;10585753;28;20052;-69
2023/06/18 21:31:10;;;;;;;6.93;5.18;;;;;;;20.02;48.62;97661.91;10585695;28;20043;-69
2023/06/18 21:36:33;;;;;;;6.60;5.43;;;;;;;19.97;48.86;97671.66;10571234;28;20039;-70
2023/06/18 21:41:57;;;;;;;8.18;6.15;;;;;;;19.92;48.87;97666.56;10584846;28;20051;-69
2023/06/18 21:47:18;;;;;;;7.65;5.82;;;;;;;19.81;49.15;97676.16;10585698;28;20446;-68
2023/06/18 21:52:38;;;;;;;6.30;5.32;;;;;;;19.73;50.25;97677.34;10585582;28;20066;-69
2023/06/18 21:58:00;;;;;;;5.85;4.90;;;;;;;19.72;49.92;97678.72;10570655;28;20469;-69
2023/06/18 22:03:21;;;;;;;6.05;4.65;;;;;;;19.73;49.47;97679.44;10569662;28;20501;-69
2023/06/18 22:08:48;;;;;;;6.35;5.10;;;;;;;19.70;49.50;97673.00;10585051;28;20405;-69
2023/06/18 22:14:08;;;;;;;7.30;5.32;;;;;;;19.71;49.63;97680.13;10556869;28;20048;-69
2023/06/18 22:19:29;;;;;;;7.97;5.47;;;;;;;19.78;49.26;97685.94;10568416;28;20420;-69
2023/06/18 22:24:50;;;;;;;7.45;5.38;;;;;;;19.80;48.70;97677.53;10554723;28;20101;-69
2023/06/18 22:30:11;;;;;;;7.78;4.97;;;;;;;19.79;48.65;97678.94;10568685;28;20051;-69
2023/06/18 22:35:31;;;;;;;8.57;5.28;;;;;;;19.82;48.48;97671.94;10583903;28;20401;-69
2023/06/18 22:40:52;;;;;;;7.20;5.32;;;;;;;19.81;48.85;97671.22;10540271;28;20047;-69
2023/06/18 22:46:13;;;;;;;6.28;5.03;;;;;;;19.84;48.74;97664.22;10568355;28;20073;-69
2023/06/18 22:51:35;;;;;;;7.00;5.55;;;;;;;19.80;48.95;97669.03;10583195;28;20485;-68
2023/06/18 22:56:56;;;;;;;7.53;5.00;;;;;;;19.78;48.94;97668.97;10554314;28;20093;-69
2023/06/18 23:02:16;;;;;;;7.78;5.55;;;;;;;19.73;49.05;97668.84;10593484;27;20047;-68
2023/06/18 23:07:37;;;;;;;5.78;4.90;;;;;;;19.63;48.85;97665.72;10625200;27;20047;-69
2023/06/18 23:12:58;;;;;;;5.78;4.93;;;;;;;19.58;49.11;97671.91;10609802;27;20039;-69
2023/06/18 23:18:18;;;;;;;5.35;4.70;;;;;;;19.50;49.13;97666.69;10609471;27;20050;-69
2023/06/18 23:23:39;;;;;;;7.43;4.40;;;;;;;19.38;49.66;97671.94;10609541;27;20071;-69
2023/06/18 23:29:01;;;;;;;6.65;4.65;;;;;;;19.27;49.84;97673.00;10581097;27;20047;-69
2023/06/18 23:34:26;;;;;;;8.65;5.05;;;;;;;19.06;49.81;97669.53;10609373;27;20099;-69
2023/06/18 23:39:50;;;;;;;9.00;5.25;;;;;;;18.97;50.50;97670.63;10624259;28;20039;-69
2023/06/18 23:45:11;;;;;;;7.15;5.40;;;;;;;18.90;50.34;97671.81;10595057;28;20041;-69
2023/06/18 23:50:31;;;;;;;8.07;5.10;;;;;;;18.82;50.49;97660.25;10609032;28;20058;-69
2023/06/18 23:55:52;;;;;;;7.55;5.00;;;;;;;18.76;50.85;97668.50;10624065;28;20071;-69
